createdAt,value
2017-12-10T00:02:09.090Z,1.20
2017-12-10T00:04:41.397Z,1.10
2017-12-10T00:07:13.710Z,1.10
2017-12-10T00:09:45.991Z,1.10
2017-12-10T00:12:24.091Z,1.10
2017-12-10T00:14:56.410Z,1.10
2017-12-10T00:17:27.710Z,1.20
2017-12-10T00:19:59.390Z,1.20
2017-12-10T00:22:31.210Z,1.30
2017-12-10T00:25:03.370Z,1.30
2017-12-10T00:27:38.931Z,1.30
2017-12-10T00:30:10.690Z,1.30
2017-12-10T00:32:42.330Z,1.30
2017-12-10T00:35:13.710Z,1.40
2017-12-10T00:37:49.331Z,1.40
2017-12-10T00:40:23.030Z,1.40
2017-12-10T00:42:54.890Z,1.40
2017-12-10T00:45:26.750Z,1.40
2017-12-10T00:47:58.511Z,1.40
2017-12-10T00:50:32.330Z,1.30
2017-12-10T00:53:05.032Z,1.30
2017-12-10T00:55:37.271Z,1.30
2017-12-10T00:58:09.231Z,1.30
2017-12-10T01:00:40.290Z,1.40
2017-12-10T01:03:12.391Z,1.40
2017-12-10T01:05:43.891Z,1.40
2017-12-10T01:08:15.530Z,1.40
2017-12-10T01:10:46.271Z,1.40
2017-12-10T01:13:18.370Z,1.40
2017-12-10T01:15:49.991Z,1.40
2017-12-10T01:18:21.753Z,1.20
2017-12-10T01:20:53.591Z,1.20
2017-12-10T01:23:30.392Z,1.20
2017-12-10T01:26:03.032Z,1.20
2017-12-10T01:28:34.296Z,1.30
2017-12-10T01:31:06.977Z,1.20
2017-12-10T01:33:39.036Z,1.20
2017-12-10T01:36:11.376Z,1.20
2017-12-10T01:38:42.876Z,1.20
2017-12-10T01:41:16.776Z,1.30
2017-12-10T01:43:48.736Z,1.30
2017-12-10T01:46:22.856Z,1.20
2017-12-10T01:48:54.816Z,1.20
2017-12-10T01:51:27.277Z,1.20
2017-12-10T01:53:58.529Z,1.20
2017-12-10T01:56:28.846Z,1.20
2017-12-10T01:59:02.136Z,1.20
2017-12-10T02:01:39.385Z,1.20
2017-12-10T02:04:11.601Z,1.30
2017-12-10T02:06:46.828Z,1.30
2017-12-10T02:09:18.170Z,1.20
2017-12-10T02:11:51.797Z,1.20
2017-12-10T02:14:27.417Z,1.20
2017-12-10T02:16:59.792Z,1.20
2017-12-10T02:19:31.656Z,1.20
2017-12-10T02:22:05.566Z,1.20
2017-12-10T02:24:41.918Z,1.20
2017-12-10T02:27:17.445Z,1.10
2017-12-10T02:29:49.345Z,1.10
2017-12-10T02:32:21.325Z,1.10
2017-12-10T02:34:53.765Z,1.10
2017-12-10T02:37:25.845Z,1.10
2017-12-10T02:39:58.393Z,1.00
2017-12-10T02:42:31.085Z,1.00
2017-12-10T02:45:03.393Z,1.00
2017-12-10T02:47:40.342Z,1.00
2017-12-10T02:50:11.366Z,1.00
2017-12-10T02:52:42.304Z,1.00
2017-12-10T02:55:13.653Z,1.00
2017-12-10T02:57:48.786Z,1.00
2017-12-10T03:00:21.793Z,1.00
2017-12-10T03:02:57.832Z,0.90
2017-12-10T03:05:29.311Z,1.00
2017-12-10T03:08:00.392Z,1.00
2017-12-10T03:10:35.372Z,0.90
2017-12-10T03:13:11.012Z,0.90
2017-12-10T03:15:45.532Z,0.90
2017-12-10T03:18:17.803Z,0.90
2017-12-10T03:20:48.753Z,0.90
2017-12-10T03:23:21.532Z,0.90
2017-12-10T03:25:53.292Z,0.90
2017-12-10T03:28:25.972Z,0.90
2017-12-10T03:30:57.112Z,0.80
2017-12-10T03:33:28.972Z,0.90
2017-12-10T03:36:00.732Z,0.90
2017-12-10T03:38:32.796Z,0.80
2017-12-10T03:41:07.412Z,0.70
2017-12-10T03:43:40.192Z,0.70
2017-12-10T03:46:12.972Z,0.80
2017-12-10T03:48:46.972Z,0.70
2017-12-10T03:51:19.672Z,0.60
2017-12-10T03:53:51.531Z,0.70
2017-12-10T03:56:22.432Z,0.60
2017-12-10T03:58:55.413Z,0.70
2017-12-10T04:01:27.571Z,0.70
2017-12-10T04:03:59.972Z,0.60
2017-12-10T04:06:30.913Z,0.60
2017-12-10T04:09:01.973Z,0.70
2017-12-10T04:11:35.400Z,0.60
2017-12-10T04:14:07.732Z,0.50
2017-12-10T04:16:40.532Z,0.50
2017-12-10T04:19:12.992Z,0.50
2017-12-10T04:21:42.792Z,0.50
2017-12-10T04:24:15.372Z,0.50
2017-12-10T04:26:47.532Z,0.50
2017-12-10T04:29:20.734Z,0.30
2017-12-10T04:31:52.992Z,0.40
2017-12-10T04:34:24.860Z,0.30
2017-12-10T04:36:57.411Z,0.30
2017-12-10T04:39:29.432Z,0.30
2017-12-10T04:42:00.332Z,0.30
2017-12-10T04:44:33.092Z,0.10
2017-12-10T04:47:05.272Z,0.10
2017-12-10T04:49:36.932Z,0.10
2017-12-10T04:52:08.592Z,0.00
2017-12-10T04:54:39.512Z,0.00
2017-12-10T04:57:12.712Z,0.00
2017-12-10T04:59:43.432Z,0.00
2017-12-10T05:02:18.792Z,-0.10
2017-12-10T05:04:51.872Z,0.00
2017-12-10T05:07:27.932Z,0.00
2017-12-10T05:10:00.812Z,-0.10
2017-12-10T05:12:32.872Z,-0.10
2017-12-10T05:15:04.732Z,-0.10
2017-12-10T05:17:36.692Z,-0.20
2017-12-10T05:20:08.351Z,-0.20
2017-12-10T05:22:38.572Z,-0.20
2017-12-10T05:25:10.411Z,-0.30
2017-12-10T05:27:42.932Z,-0.40
2017-12-10T05:30:15.452Z,-0.50
2017-12-10T05:32:47.552Z,-0.40
2017-12-10T05:35:20.611Z,-0.40
2017-12-10T05:37:52.825Z,-0.40
2017-12-10T05:40:24.274Z,-0.50
2017-12-10T05:43:03.419Z,-0.50
2017-12-10T05:45:39.032Z,-0.60
2017-12-10T05:48:12.412Z,-0.60
2017-12-10T05:50:44.499Z,-0.50
2017-12-10T05:53:16.559Z,-0.60
2017-12-10T05:55:48.611Z,-0.60
2017-12-10T05:58:23.952Z,-0.70
2017-12-10T06:00:56.552Z,-0.70
2017-12-10T06:03:28.712Z,-0.60
2017-12-10T06:06:00.652Z,-0.60
2017-12-10T06:08:33.353Z,-0.50
2017-12-10T06:11:06.012Z,-0.60
2017-12-10T06:13:42.592Z,-0.70
2017-12-10T06:16:18.552Z,-0.70
2017-12-10T06:18:50.412Z,-0.70
2017-12-10T06:21:21.855Z,-0.70
2017-12-10T06:23:58.218Z,-0.80
2017-12-10T06:26:30.446Z,-0.80
2017-12-10T06:29:02.669Z,-0.70
2017-12-10T06:31:34.009Z,-0.60
2017-12-10T06:34:06.895Z,-0.50
2017-12-10T06:36:40.789Z,-0.60
2017-12-10T06:39:12.969Z,-0.60
2017-12-10T06:41:47.069Z,-0.70
2017-12-10T06:44:20.889Z,-0.80
2017-12-10T06:46:53.449Z,-0.80
2017-12-10T06:49:25.950Z,-0.80
2017-12-10T06:51:57.688Z,-0.60
2017-12-10T06:54:31.089Z,-0.40
2017-12-10T06:57:03.648Z,-0.40
2017-12-10T06:59:35.729Z,-0.50
2017-12-10T07:02:08.289Z,-0.70
2017-12-10T07:04:39.429Z,-0.80
2017-12-10T07:07:11.609Z,-0.90
2017-12-10T07:09:45.009Z,-0.90
2017-12-10T07:12:17.169Z,-0.80
2017-12-10T07:14:52.609Z,-0.70
2017-12-10T07:17:23.949Z,-0.60
2017-12-10T07:19:56.529Z,-0.60
2017-12-10T07:22:30.330Z,-0.50
2017-12-10T07:25:02.189Z,-0.40
2017-12-10T07:27:35.389Z,-0.20
2017-12-10T07:30:07.349Z,-0.20
2017-12-10T07:32:38.589Z,0.00
2017-12-10T07:35:12.809Z,0.30
2017-12-10T07:37:45.988Z,0.50
2017-12-10T07:40:21.550Z,0.70
2017-12-10T07:42:57.289Z,0.70
2017-12-10T07:45:29.569Z,1.00
2017-12-10T07:48:04.709Z,1.00
2017-12-10T07:50:37.068Z,1.40
2017-12-10T07:53:09.649Z,1.50
2017-12-10T07:55:41.429Z,1.60
2017-12-10T07:58:13.449Z,1.80
2017-12-10T08:00:46.569Z,1.80
2017-12-10T08:03:18.729Z,1.90
2017-12-10T08:05:50.809Z,2.00
2017-12-10T08:08:23.428Z,2.00
2017-12-10T08:10:54.208Z,2.00
2017-12-10T08:13:28.109Z,2.10
2017-12-10T08:16:00.069Z,2.20
2017-12-10T08:18:33.149Z,2.20
2017-12-10T08:21:05.029Z,2.20
2017-12-10T08:23:35.649Z,2.20
2017-12-10T08:26:07.991Z,2.40
2017-12-10T08:28:38.948Z,2.30
2017-12-10T08:31:11.428Z,2.40
2017-12-10T08:33:43.447Z,2.40
2017-12-10T08:36:16.450Z,2.40
2017-12-10T08:38:48.029Z,2.50
2017-12-10T08:41:20.628Z,2.50
2017-12-10T08:43:52.047Z,2.90
2017-12-10T08:46:25.549Z,2.80
2017-12-10T08:48:57.408Z,2.70
2017-12-10T08:51:28.148Z,2.70
2017-12-10T08:54:01.848Z,3.00
2017-12-10T08:56:32.369Z,3.00
2017-12-10T08:59:04.148Z,3.10
2017-12-10T09:01:35.388Z,3.20
2017-12-10T09:04:08.067Z,3.20
2017-12-10T09:06:45.149Z,3.10
2017-12-10T09:09:16.808Z,3.10
2017-12-10T09:11:47.949Z,3.30
2017-12-10T09:14:19.908Z,3.30
2017-12-10T09:16:51.748Z,3.40
2017-12-10T09:19:23.108Z,3.40
2017-12-10T09:21:55.907Z,3.50
2017-12-10T09:24:29.688Z,3.50
2017-12-10T09:27:01.248Z,3.60
2017-12-10T09:29:33.110Z,3.60
2017-12-10T09:32:05.177Z,3.70
2017-12-10T09:34:37.487Z,3.70
2017-12-10T09:37:10.828Z,3.80
2017-12-10T09:39:42.187Z,3.90
2017-12-10T09:42:14.548Z,3.90
2017-12-10T09:44:51.668Z,3.90
2017-12-10T09:47:24.309Z,3.90
2017-12-10T09:49:58.015Z,4.00
2017-12-10T09:52:29.869Z,4.10
2017-12-10T09:55:01.128Z,4.20
2017-12-10T09:57:32.968Z,4.20
2017-12-10T10:00:05.148Z,4.10
2017-12-10T10:02:38.448Z,4.20
2017-12-10T10:05:10.708Z,4.20
2017-12-10T10:07:46.768Z,4.30
2017-12-10T10:10:18.348Z,4.30
2017-12-10T10:12:51.468Z,4.40
2017-12-10T10:15:22.747Z,4.40
2017-12-10T10:17:54.008Z,4.40
2017-12-10T10:20:26.268Z,4.40
2017-12-10T10:22:58.128Z,4.50
2017-12-10T10:25:31.327Z,4.50
2017-12-10T10:28:02.767Z,4.50
2017-12-10T10:30:34.428Z,4.50
2017-12-10T10:33:07.008Z,4.50
2017-12-10T10:35:37.929Z,4.50
2017-12-10T10:38:13.456Z,4.50
2017-12-10T10:40:45.508Z,4.40
2017-12-10T10:43:16.389Z,4.50
2017-12-10T10:45:49.073Z,4.40
2017-12-10T10:48:20.608Z,4.40
2017-12-10T10:50:53.431Z,4.40
2017-12-10T10:53:24.489Z,4.40
2017-12-10T10:55:56.288Z,4.50
2017-12-10T10:58:27.035Z,4.50
2017-12-10T11:01:01.447Z,4.60
2017-12-10T11:03:32.588Z,4.60
2017-12-10T11:06:04.448Z,4.60
2017-12-10T11:08:36.448Z,4.60
2017-12-10T11:11:14.097Z,4.60
2017-12-10T11:13:47.448Z,4.60
2017-12-10T11:16:18.350Z,4.70
2017-12-10T11:18:50.088Z,4.80
2017-12-10T11:21:20.928Z,4.80
2017-12-10T11:23:51.987Z,4.80
2017-12-10T11:26:24.228Z,5.00
2017-12-10T11:28:54.870Z,5.00
2017-12-10T11:31:26.468Z,5.10
2017-12-10T11:34:04.028Z,5.10
2017-12-10T11:36:36.488Z,5.10
2017-12-10T11:39:09.267Z,5.10
2017-12-10T11:41:45.467Z,5.20
2017-12-10T11:44:17.476Z,5.20
2017-12-10T11:46:48.495Z,5.20
2017-12-10T11:49:20.108Z,5.20
2017-12-10T11:51:51.848Z,5.20
2017-12-10T11:54:25.648Z,5.20
2017-12-10T11:57:00.588Z,5.30
2017-12-10T11:59:32.748Z,5.20
2017-12-10T12:02:07.567Z,5.10
2017-12-10T12:04:38.908Z,5.20
2017-12-10T12:07:13.488Z,5.30
2017-12-10T12:09:46.468Z,5.30
2017-12-10T12:12:24.228Z,5.30
2017-12-10T12:14:55.568Z,5.30
2017-12-10T12:17:27.429Z,5.30
2017-12-10T12:19:58.888Z,5.40
2017-12-10T12:22:30.647Z,5.40
2017-12-10T12:25:01.488Z,5.50
2017-12-10T12:27:35.468Z,5.50
2017-12-10T12:30:08.994Z,5.50
2017-12-10T12:32:41.488Z,5.50
2017-12-10T12:35:12.589Z,5.50
2017-12-10T12:37:44.150Z,5.60
2017-12-10T12:40:17.028Z,5.70
2017-12-10T12:42:49.708Z,5.80
2017-12-10T12:45:22.188Z,5.80
2017-12-10T12:47:54.147Z,5.90
2017-12-10T12:50:26.008Z,5.90
2017-12-10T12:52:57.048Z,6.00
2017-12-10T12:55:33.629Z,6.00
2017-12-10T12:58:05.788Z,6.00
2017-12-10T13:00:40.728Z,6.10
2017-12-10T13:03:11.488Z,6.10
2017-12-10T13:05:42.471Z,6.10
2017-12-10T13:08:13.438Z,6.20
2017-12-10T13:10:44.670Z,6.20
2017-12-10T13:13:16.728Z,6.20
2017-12-10T13:15:48.808Z,6.20
2017-12-10T13:18:19.468Z,6.20
2017-12-10T13:20:51.908Z,6.30
2017-12-10T13:23:23.515Z,6.20
2017-12-10T13:25:58.472Z,6.20
2017-12-10T13:28:30.249Z,6.20
2017-12-10T13:31:05.992Z,6.20
2017-12-10T13:33:38.369Z,6.20
2017-12-10T13:36:12.170Z,6.10
2017-12-10T13:38:44.028Z,6.10
2017-12-10T13:41:14.771Z,6.20
2017-12-10T13:43:47.129Z,6.20
2017-12-10T13:46:18.989Z,6.30
2017-12-10T13:48:50.533Z,6.20
2017-12-10T13:51:22.297Z,6.20
2017-12-10T13:53:55.089Z,6.10
2017-12-10T13:56:27.248Z,6.10
2017-12-10T13:58:58.389Z,6.10
2017-12-10T14:01:28.829Z,6.10
2017-12-10T14:03:59.748Z,6.10
2017-12-10T14:06:31.729Z,6.00
2017-12-10T14:09:04.617Z,6.00
2017-12-10T14:11:36.169Z,6.00
2017-12-10T14:14:07.296Z,5.90
2017-12-10T14:16:38.349Z,5.80
2017-12-10T14:19:11.489Z,5.80
2017-12-10T14:21:43.188Z,5.80
2017-12-10T14:24:14.849Z,5.80
2017-12-10T14:26:46.295Z,5.80
2017-12-10T14:29:19.070Z,5.70
2017-12-10T14:31:50.629Z,5.70
2017-12-10T14:34:22.989Z,5.50
2017-12-10T14:36:54.448Z,5.50
2017-12-10T14:39:26.929Z,5.50
2017-12-10T14:41:57.868Z,5.60
2017-12-10T14:44:29.008Z,5.60
2017-12-10T14:47:00.489Z,5.60
2017-12-10T14:49:31.588Z,5.70
2017-12-10T14:52:05.489Z,5.70
2017-12-10T14:54:36.229Z,5.80
2017-12-10T14:57:09.476Z,5.80
2017-12-10T14:59:40.869Z,5.70
2017-12-10T15:02:11.909Z,5.60
2017-12-10T15:04:42.549Z,5.70
2017-12-10T15:07:15.129Z,5.50
2017-12-10T15:09:46.868Z,5.40
2017-12-10T15:12:18.015Z,5.40
2017-12-10T15:14:50.508Z,5.40
2017-12-10T15:17:22.048Z,5.40
2017-12-10T15:19:54.489Z,5.30
2017-12-10T15:22:26.170Z,5.30
2017-12-10T15:24:59.069Z,5.20
2017-12-10T15:27:33.268Z,5.20
2017-12-10T15:30:05.229Z,5.30
2017-12-10T15:32:35.769Z,5.30
2017-12-10T15:35:12.229Z,5.40
2017-12-10T15:37:44.189Z,5.40
2017-12-10T15:40:15.489Z,5.40
2017-12-10T15:42:49.972Z,5.40
2017-12-10T15:45:22.428Z,5.40
2017-12-10T15:47:53.269Z,5.40
2017-12-10T15:50:24.229Z,5.30
2017-12-10T15:52:56.508Z,5.20
2017-12-10T15:55:27.552Z,5.10
2017-12-10T15:57:58.969Z,5.10
2017-12-10T16:00:34.488Z,5.10
2017-12-10T16:03:05.530Z,5.10
2017-12-10T16:05:39.448Z,5.00
2017-12-10T16:08:10.489Z,5.10
2017-12-10T16:10:43.068Z,5.00
2017-12-10T16:13:14.209Z,5.00
2017-12-10T16:15:48.450Z,5.10
2017-12-10T16:18:20.188Z,5.00
2017-12-10T16:20:52.509Z,5.00
2017-12-10T16:23:24.113Z,5.10
2017-12-10T16:25:56.988Z,5.00
2017-12-10T16:28:28.511Z,5.00
2017-12-10T16:31:01.231Z,4.90
2017-12-10T16:33:32.169Z,5.00
2017-12-10T16:36:04.115Z,5.10
2017-12-10T16:38:36.569Z,5.10
2017-12-10T16:41:07.529Z,5.10
2017-12-10T16:43:40.509Z,5.10
2017-12-10T16:46:12.690Z,5.10
2017-12-10T16:48:44.129Z,5.10
2017-12-10T16:51:15.489Z,5.10
2017-12-10T16:53:47.970Z,5.10
2017-12-10T16:56:20.009Z,5.10
2017-12-10T16:58:51.832Z,5.20
2017-12-10T17:01:24.049Z,5.20
2017-12-10T17:03:59.530Z,5.20
2017-12-10T17:06:33.809Z,5.20
2017-12-10T17:09:05.169Z,5.10
2017-12-10T17:11:37.130Z,5.20
2017-12-10T17:14:09.389Z,5.20
2017-12-10T17:16:42.798Z,5.20
2017-12-10T17:19:16.690Z,5.20
2017-12-10T17:21:49.798Z,5.20
2017-12-10T17:24:20.609Z,5.20
2017-12-10T17:26:51.253Z,5.20
2017-12-10T17:29:22.193Z,5.20
2017-12-10T17:31:58.508Z,5.20
2017-12-10T17:34:31.230Z,5.20
2017-12-10T17:37:04.728Z,5.20
2017-12-10T17:39:36.390Z,5.10
2017-12-10T17:42:08.249Z,5.10
2017-12-10T17:44:42.071Z,5.20
2017-12-10T17:47:14.429Z,5.20
2017-12-10T17:49:45.369Z,5.20
2017-12-10T17:52:16.570Z,5.20
2017-12-10T17:54:48.870Z,5.20
2017-12-10T17:57:20.629Z,5.20
2017-12-10T17:59:53.218Z,5.20
2017-12-10T18:02:27.009Z,5.20
2017-12-10T18:05:02.650Z,4.60
2017-12-10T18:07:39.329Z,5.10
2017-12-10T18:10:10.517Z,5.10
2017-12-10T18:12:41.728Z,5.10
2017-12-10T18:15:13.670Z,5.20
2017-12-10T18:17:44.930Z,5.20
2017-12-10T18:20:16.271Z,5.20
2017-12-10T18:22:48.428Z,5.30
2017-12-10T18:25:19.490Z,5.30
2017-12-10T18:27:53.889Z,5.40
2017-12-10T18:30:24.929Z,5.40
2017-12-10T18:32:55.969Z,5.50
2017-12-10T18:35:30.716Z,5.50
2017-12-10T18:38:03.488Z,5.50
2017-12-10T18:40:36.369Z,5.40
2017-12-10T18:43:08.829Z,5.40
2017-12-10T18:45:40.720Z,5.40
2017-12-10T18:48:12.870Z,5.50
2017-12-10T18:50:44.829Z,5.50
2017-12-10T18:53:16.291Z,5.60
2017-12-10T18:55:48.349Z,5.60
2017-12-10T18:58:20.410Z,5.70
2017-12-10T19:00:55.445Z,5.70
2017-12-10T19:03:33.664Z,5.80
2017-12-10T19:06:05.924Z,5.80
2017-12-10T19:08:39.404Z,5.80
2017-12-10T19:11:11.165Z,5.80
2017-12-10T19:13:43.343Z,5.90
2017-12-10T19:16:16.125Z,5.90
2017-12-10T19:18:47.668Z,5.90
2017-12-10T19:21:18.205Z,5.90
2017-12-10T19:23:49.244Z,6.00
2017-12-10T19:26:25.832Z,6.00
2017-12-10T19:28:59.206Z,5.90
2017-12-10T19:31:30.444Z,6.00
2017-12-10T19:34:03.244Z,5.90
2017-12-10T19:36:34.485Z,6.00
2017-12-10T19:39:06.025Z,6.00
2017-12-10T19:41:38.304Z,6.00
2017-12-10T19:44:10.265Z,6.00
2017-12-10T19:46:42.525Z,6.10
2017-12-10T19:49:17.048Z,6.10
2017-12-10T19:51:54.026Z,6.10
2017-12-10T19:54:27.444Z,6.10
2017-12-10T19:57:01.854Z,6.10
2017-12-10T19:59:40.544Z,6.20
2017-12-10T20:02:17.423Z,6.20
2017-12-10T20:04:49.933Z,6.10
2017-12-10T20:07:22.912Z,6.20
2017-12-10T20:09:54.764Z,6.10
2017-12-10T20:12:24.564Z,6.10
2017-12-10T20:14:56.645Z,6.00
2017-12-10T20:17:33.424Z,6.00
2017-12-10T20:20:06.089Z,6.00
2017-12-10T20:22:37.244Z,6.00
2017-12-10T20:25:07.764Z,5.90
2017-12-10T20:27:39.004Z,6.00
2017-12-10T20:30:11.490Z,5.90
2017-12-10T20:32:42.124Z,6.00
2017-12-10T20:35:14.085Z,6.00
2017-12-10T20:37:45.345Z,5.90
2017-12-10T20:40:18.523Z,5.90
2017-12-10T20:42:50.884Z,5.90
2017-12-10T20:45:22.226Z,5.80
2017-12-10T20:47:57.544Z,5.80
2017-12-10T20:50:29.224Z,5.70
2017-12-10T20:53:07.024Z,5.70
2017-12-10T20:55:39.804Z,5.70
2017-12-10T20:58:10.644Z,5.70
2017-12-10T21:00:42.084Z,5.70
2017-12-10T21:03:13.024Z,5.80
2017-12-10T21:05:43.264Z,5.80
2017-12-10T21:08:14.703Z,5.70
2017-12-10T21:10:46.344Z,5.70
2017-12-10T21:13:18.104Z,5.70
2017-12-10T21:15:50.486Z,5.70
2017-12-10T21:18:21.583Z,5.80
2017-12-10T21:20:53.544Z,5.80
2017-12-10T21:23:24.524Z,5.80
2017-12-10T21:25:56.904Z,6.10
2017-12-10T21:28:28.864Z,6.20
2017-12-10T21:31:01.124Z,6.30
2017-12-10T21:33:36.544Z,6.40
2017-12-10T21:36:09.243Z,6.40
2017-12-10T21:38:40.184Z,6.60
2017-12-10T21:41:11.144Z,6.70
2017-12-10T21:43:44.583Z,6.70
2017-12-10T21:46:17.104Z,6.80
2017-12-10T21:48:48.244Z,6.90
2017-12-10T21:51:19.484Z,6.90
2017-12-10T21:53:51.544Z,7.00
2017-12-10T21:56:23.004Z,7.10
2017-12-10T21:58:54.863Z,7.10
2017-12-10T22:01:29.544Z,7.10
2017-12-10T22:04:01.644Z,7.10
2017-12-10T22:06:35.164Z,7.20
2017-12-10T22:09:08.564Z,7.20
2017-12-10T22:11:40.104Z,7.20
2017-12-10T22:14:13.545Z,7.30
2017-12-10T22:16:46.004Z,7.30
2017-12-10T22:19:17.404Z,7.30
2017-12-10T22:21:48.644Z,7.40
2017-12-10T22:24:20.563Z,7.40
2017-12-10T22:26:52.783Z,7.50
2017-12-10T22:29:25.075Z,7.50
2017-12-10T22:31:56.704Z,7.50
2017-12-10T22:34:28.784Z,7.50
2017-12-10T22:36:59.504Z,7.60
2017-12-10T22:39:30.645Z,7.60
2017-12-10T22:42:05.884Z,7.70
2017-12-10T22:44:38.664Z,7.70
2017-12-10T22:47:12.184Z,7.70
2017-12-10T22:49:43.923Z,7.70
2017-12-10T22:52:15.164Z,7.80
2017-12-10T22:54:45.703Z,7.70
2017-12-10T22:57:20.124Z,7.90
2017-12-10T22:59:53.003Z,7.80
2017-12-10T23:02:25.164Z,7.80
2017-12-10T23:05:01.244Z,7.80
2017-12-10T23:07:31.604Z,7.80
2017-12-10T23:10:03.723Z,7.80
2017-12-10T23:12:51.963Z,7.70
2017-12-10T23:15:23.724Z,7.70
2017-12-10T23:17:55.164Z,7.60
2017-12-10T23:20:30.805Z,7.60
2017-12-10T23:23:02.683Z,7.60
2017-12-10T23:25:34.313Z,7.60
2017-12-10T23:28:05.983Z,7.60
2017-12-10T23:30:37.964Z,7.60
2017-12-10T23:33:10.204Z,7.70
2017-12-10T23:35:41.463Z,7.70
2017-12-10T23:38:14.743Z,7.70
2017-12-10T23:40:47.524Z,7.70
2017-12-10T23:43:18.884Z,7.70
2017-12-10T23:45:54.604Z,7.60
2017-12-10T23:48:26.564Z,7.60
2017-12-10T23:50:58.143Z,7.50
2017-12-10T23:53:29.783Z,7.40
2017-12-10T23:56:01.864Z,7.40
2017-12-10T23:58:33.584Z,7.30
